Time;durP1;ratioP1;P1;durP2;ratioP2;P2;SDS_P1;SDS_P2;PMS_P1;PMS_P2;Temp;Humidity;BMP_temperature;BMP_pressure;BME280_temperature;BME280_humidity;BME280_pressure;Samples;Min_cycle;Max_cycle;Signal;HPM_P1;HPM_P2
2023/04/16 00:01:35;;;;;;;26.60;15.38;;;;;;;6.67;72.62;98118.63;5092124;28;20101;-71
2023/04/16 00:04:00;;;;;;;23.38;13.32;;;;;;;6.66;72.28;98122.47;5092117;28;20036;-72
2023/04/16 00:06:27;;;;;;;21.63;13.52;;;;;;;6.64;72.45;98125.44;5091957;28;20035;-71
2023/04/16 00:08:52;;;;;;;19.70;11.40;;;;;;;6.63;72.88;98126.53;5089277;28;20020;-71
2023/04/16 00:11:18;;;;;;;20.90;12.65;;;;;;;6.66;72.58;98130.63;5090757;28;20023;-71
2023/04/16 00:13:43;;;;;;;19.02;12.05;;;;;;;6.64;72.87;98130.09;5091643;28;20109;-70
2023/04/16 00:16:08;;;;;;;19.25;10.45;;;;;;;6.63;72.85;98131.19;5091605;28;20095;-70
2023/04/16 00:18:34;;;;;;;17.67;10.60;;;;;;;6.60;73.13;98129.81;5091891;28;20024;-71
2023/04/16 00:21:00;;;;;;;18.67;10.57;;;;;;;6.61;72.86;98130.66;5091448;28;20117;-72
2023/04/16 00:23:25;;;;;;;15.32;10.27;;;;;;;6.57;72.89;98135.81;5092611;28;20462;-71
2023/04/16 00:25:51;;;;;;;16.83;10.80;;;;;;;6.54;72.80;98137.22;5091420;28;20098;-71
2023/04/16 00:28:16;;;;;;;16.38;10.52;;;;;;;6.54;72.72;98134.47;5090976;28;20427;-70
2023/04/16 00:30:41;;;;;;;14.70;9.75;;;;;;;6.52;72.48;98133.16;5091762;28;20452;-70
2023/04/16 00:33:07;;;;;;;15.52;10.57;;;;;;;6.52;72.52;98133.94;5091838;28;20113;-71
2023/04/16 00:35:32;;;;;;;16.13;10.85;;;;;;;6.51;73.17;98139.69;5091669;28;20032;-71
2023/04/16 00:37:57;;;;;;;15.38;10.05;;;;;;;6.46;72.74;98148.66;5091265;28;20047;-71
2023/04/16 00:40:27;;;;;;;17.30;11.43;;;;;;;6.44;72.53;98153.56;5091372;28;20380;-71
2023/04/16 00:42:52;;;;;;;16.27;11.05;;;;;;;6.45;72.48;98157.13;5091296;28;20028;-71
2023/04/16 00:45:18;;;;;;;23.15;12.40;;;;;;;6.45;72.76;98157.94;5091189;28;20078;-71
2023/04/16 00:47:43;;;;;;;22.40;12.25;;;;;;;6.47;72.84;98154.94;5091534;28;20017;-71
2023/04/16 00:50:10;;;;;;;22.70;12.20;;;;;;;6.51;72.95;98164.19;5091412;28;20030;-70
2023/04/16 00:52:36;;;;;;;21.88;11.45;;;;;;;6.52;72.94;98169.38;5091429;28;20012;-70
2023/04/16 00:55:02;;;;;;;19.80;10.82;;;;;;;6.51;73.15;98159.56;5091528;28;20031;-72
2023/04/16 00:57:27;;;;;;;23.02;12.30;;;;;;;6.55;73.14;98170.69;5091283;28;20694;-71
2023/04/16 00:59:53;;;;;;;17.60;10.32;;;;;;;6.58;73.36;98166.63;5091390;28;20034;-71
2023/04/16 01:02:19;;;;;;;24.83;11.57;;;;;;;6.61;73.46;98171.53;5091718;28;20493;-70
2023/04/16 01:04:44;;;;;;;28.33;14.25;;;;;;;6.64;73.53;98165.53;5091618;28;20024;-70
2023/04/16 01:07:10;;;;;;;28.98;14.35;;;;;;;6.67;73.56;98164.97;5091747;28;20027;-70
2023/04/16 01:09:35;;;;;;;28.98;13.60;;;;;;;6.69;73.70;98174.47;5091566;28;20039;-72
2023/04/16 01:12:01;;;;;;;31.70;14.55;;;;;;;6.70;73.66;98169.88;5091355;28;20537;-71
2023/04/16 01:14:26;;;;;;;27.55;13.60;;;;;;;6.75;74.07;98180.72;5091488;28;20032;-72
2023/04/16 01:16:51;;;;;;;35.40;17.25;;;;;;;6.79;74.13;98181.81;5091467;28;20393;-71
2023/04/16 01:19:17;;;;;;;34.40;17.45;;;;;;;6.80;73.86;98180.72;5091477;28;20473;-72
2023/04/16 01:21:42;;;;;;;28.38;15.00;;;;;;;6.82;74.02;98177.72;5092278;28;20038;-72
2023/04/16 01:24:07;;;;;;;20.20;12.18;;;;;;;6.87;74.05;98182.31;5092307;28;20528;-72
2023/04/16 01:26:33;;;;;;;19.17;12.00;;;;;;;6.88;74.49;98176.63;5092380;28;20028;-71
2023/04/16 01:28:59;;;;;;;18.92;11.10;;;;;;;6.89;74.05;98177.41;5092224;28;20055;-72
2023/04/16 01:31:24;;;;;;;16.27;10.73;;;;;;;6.89;74.02;98169.22;5091898;28;20031;-71
2023/04/16 01:33:50;;;;;;;16.45;9.93;;;;;;;6.88;74.05;98173.88;5092007;28;20025;-70
2023/04/16 01:36:15;;;;;;;15.38;9.57;;;;;;;6.83;73.86;98173.91;5092027;28;20020;-71
2023/04/16 01:38:41;;;;;;;13.68;9.07;;;;;;;6.77;73.93;98175.00;5091206;28;20083;-72
2023/04/16 01:41:06;;;;;;;13.02;8.55;;;;;;;6.72;74.19;98178.59;5091091;28;20381;-72
2023/04/16 01:43:32;;;;;;;10.57;7.82;;;;;;;6.70;73.85;98178.03;5091861;28;20020;-71
2023/04/16 01:46:17;;;;;;;24.20;12.55;;;;;;;6.65;74.20;98187.03;5091822;28;20035;-72
2023/04/16 01:48:42;;;;;;;19.42;11.27;;;;;;;6.62;73.88;98186.78;5092198;28;20523;-71
2023/04/16 01:51:08;;;;;;;15.88;10.10;;;;;;;6.57;74.44;98192.25;5091998;28;20028;-71
2023/04/16 01:53:34;;;;;;;33.80;18.73;;;;;;;6.52;74.06;98193.88;5092042;28;20028;-72
2023/04/16 01:56:00;;;;;;;27.35;15.38;;;;;;;6.51;74.49;98192.25;5091958;28;20059;-71
2023/04/16 01:58:28;;;;;;;26.60;15.32;;;;;;;6.47;74.62;98183.00;5091952;28;20035;-71
2023/04/16 02:00:54;;;;;;;26.15;15.57;;;;;;;6.44;74.13;98189.00;5091638;28;20028;-71
2023/04/16 02:03:20;;;;;;;28.13;15.63;;;;;;;6.44;74.60;98188.19;5092027;28;20024;-71
2023/04/16 02:05:46;;;;;;;30.10;16.73;;;;;;;6.46;74.85;98188.72;5091729;28;20107;-71
2023/04/16 02:08:11;;;;;;;27.50;16.00;;;;;;;6.47;74.58;98190.38;5090130;28;20103;-72
2023/04/16 02:10:37;;;;;;;25.05;15.10;;;;;;;6.49;74.92;98188.19;5091553;28;20032;-71
2023/04/16 02:13:02;;;;;;;23.52;14.82;;;;;;;6.51;74.90;98188.72;5091518;28;20024;-71
2023/04/16 02:15:27;;;;;;;22.20;13.82;;;;;;;6.51;74.97;98192.25;5091334;28;20103;-71
2023/04/16 02:17:55;;;;;;;21.02;13.50;;;;;;;6.52;74.97;98182.19;5091463;28;20038;-71
2023/04/16 02:20:21;;;;;;;24.83;14.90;;;;;;;6.54;75.02;98182.69;5091325;28;20027;-71
2023/04/16 02:22:46;;;;;;;21.75;13.25;;;;;;;6.54;74.63;98190.88;5091431;28;20487;-71
2023/04/16 02:25:13;;;;;;;21.67;14.27;;;;;;;6.53;74.70;98190.06;5091384;28;20067;-71
2023/04/16 02:27:38;;;;;;;20.45;13.45;;;;;;;6.52;74.73;98193.88;5091360;28;20039;-71
2023/04/16 02:30:04;;;;;;;21.67;13.73;;;;;;;6.48;74.44;98195.53;5091060;28;20452;-71
2023/04/16 02:32:30;;;;;;;20.63;13.40;;;;;;;6.46;74.70;98184.09;5091318;28;20097;-71
2023/04/16 02:34:56;;;;;;;18.40;10.82;;;;;;;6.44;74.61;98190.91;5090766;28;20032;-71
2023/04/16 02:37:21;;;;;;;24.02;16.17;;;;;;;6.44;75.08;98190.91;5094812;28;20048;-71
2023/04/16 02:39:48;;;;;;;21.27;14.45;;;;;;;6.39;74.88;98189.81;5094942;28;20034;-71
2023/04/16 02:42:15;;;;;;;18.00;12.18;;;;;;;6.37;75.10;98189.28;5095146;28;20366;-71
2023/04/16 02:44:40;;;;;;;15.77;9.57;;;;;;;6.37;74.84;98193.91;5094746;28;20363;-72
2023/04/16 02:47:06;;;;;;;14.20;9.63;;;;;;;6.38;75.17;98196.38;5094719;28;20031;-71
2023/04/16 02:49:31;;;;;;;11.65;8.35;;;;;;;6.37;76.19;98188.44;5094837;28;20039;-70
2023/04/16 02:51:57;;;;;;;13.65;8.55;;;;;;;6.34;75.54;98198.00;5094847;28;20452;-71
2023/04/16 02:54:22;;;;;;;12.98;9.02;;;;;;;6.33;76.10;98201.81;5094537;28;20024;-71
2023/04/16 02:56:47;;;;;;;12.25;8.13;;;;;;;6.31;75.63;98200.47;5094758;28;20103;-71
2023/04/16 02:59:13;;;;;;;11.65;8.18;;;;;;;6.28;75.46;98198.28;5094631;28;20027;-71
2023/04/16 03:01:38;;;;;;;11.48;7.57;;;;;;;6.29;75.33;98202.66;5094491;28;20076;-71
2023/04/16 03:04:04;;;;;;;10.60;7.68;;;;;;;6.31;75.94;98206.72;5094451;28;20122;-71
2023/04/16 03:06:30;;;;;;;9.98;7.13;;;;;;;6.30;75.40;98210.53;5093856;28;20027;-71
2023/04/16 03:08:55;;;;;;;10.68;7.93;;;;;;;6.32;75.49;98205.63;5093738;28;20039;-70
2023/04/16 03:11:21;;;;;;;12.30;7.80;;;;;;;6.35;75.56;98215.16;5094501;28;20028;-71
2023/04/16 03:13:46;;;;;;;10.32;7.25;;;;;;;6.36;75.48;98212.16;5093231;28;20478;-71
2023/04/16 03:16:12;;;;;;;9.18;6.95;;;;;;;6.37;75.34;98218.41;5094374;28;20039;-71
2023/04/16 03:18:37;;;;;;;10.65;7.38;;;;;;;6.36;75.32;98228.50;5094137;28;20028;-71
2023/04/16 03:21:03;;;;;;;9.48;7.43;;;;;;;6.38;75.43;98229.06;5094683;28;20032;-70
2023/04/16 03:23:29;;;;;;;11.27;7.70;;;;;;;6.38;75.33;98229.06;5094287;28;20035;-71
2023/04/16 03:25:54;;;;;;;10.85;7.88;;;;;;;6.36;75.29;98233.97;5094250;28;20020;-71
2023/04/16 03:28:20;;;;;;;10.18;7.95;;;;;;;6.36;75.31;98231.22;5094145;28;20059;-71
2023/04/16 03:30:50;;;;;;;11.40;8.07;;;;;;;6.36;75.62;98233.97;5092796;28;20012;-71
2023/04/16 03:33:16;;;;;;;;;;;;;;;6.35;75.57;98239.66;5093072;28;20389;-71
2023/04/16 03:35:41;;;;;;;20.60;11.90;;;;;;;6.29;75.39;98247.03;5094027;28;19934;-71
2023/04/16 03:38:06;;;;;;;22.73;14.02;;;;;;;6.23;75.66;98253.56;5092227;28;20210;-71
2023/04/16 03:40:32;;;;;;;23.17;14.80;;;;;;;6.09;75.96;98254.13;5094086;28;20024;-71
2023/04/16 03:42:57;;;;;;;27.90;15.68;;;;;;;6.01;75.45;98257.38;5094225;28;20488;-71
2023/04/16 03:45:22;;;;;;;23.38;14.27;;;;;;;5.96;75.33;98257.34;5094141;28;20046;-71
2023/04/16 03:47:51;;;;;;;20.42;12.82;;;;;;;5.95;75.40;98255.72;5093758;28;20028;-71
2023/04/16 03:50:18;;;;;;;22.25;13.25;;;;;;;5.93;75.45;98255.16;5093980;28;20048;-71
2023/04/16 03:52:43;;;;;;;19.13;11.65;;;;;;;5.91;75.72;98263.59;5093826;28;20027;-71
2023/04/16 03:55:09;;;;;;;21.52;12.57;;;;;;;5.86;75.67;98276.38;5093668;28;20093;-71
2023/04/16 03:57:34;;;;;;;20.63;12.75;;;;;;;5.84;75.86;98276.66;5089802;28;20028;-71
2023/04/16 04:00:00;;;;;;;22.98;13.77;;;;;;;5.81;75.47;98278.00;5091870;28;20068;-71
2023/04/16 04:02:25;;;;;;;24.38;15.60;;;;;;;5.81;75.82;98288.88;5093000;28;20028;-71
2023/04/16 04:04:51;;;;;;;25.55;15.68;;;;;;;5.84;76.10;98293.00;5093374;28;20396;-71
2023/04/16 04:07:16;;;;;;;25.10;15.73;;;;;;;5.84;76.15;98300.31;5093294;28;20024;-71
2023/04/16 04:09:42;;;;;;;24.75;16.02;;;;;;;5.87;76.03;98306.06;5093191;28;20421;-71
2023/04/16 04:12:08;;;;;;;30.80;19.42;;;;;;;5.85;76.13;98310.97;5092933;28;20384;-71
2023/04/16 04:14:38;;;;;;;28.67;18.23;;;;;;;5.85;76.32;98305.53;5093259;28;20028;-71
2023/04/16 04:17:07;;;;;;;29.05;18.73;;;;;;;5.87;75.85;98307.97;5091905;28;20034;-71
2023/04/16 04:19:33;;;;;;;30.35;20.75;;;;;;;5.86;75.76;98303.59;5092803;28;20032;-71
2023/04/16 04:21:58;;;;;;;29.85;18.45;;;;;;;5.87;76.06;98307.97;5092869;28;20527;-71
2023/04/16 04:24:24;;;;;;;26.83;16.73;;;;;;;5.89;75.98;98301.19;5093080;28;20123;-71
2023/04/16 04:26:49;;;;;;;28.65;16.88;;;;;;;5.91;76.35;98314.50;5091538;28;20107;-71
2023/04/16 04:29:14;;;;;;;24.05;14.90;;;;;;;5.92;76.15;98314.22;5092805;28;20024;-71
2023/04/16 04:31:40;;;;;;;25.45;16.23;;;;;;;5.93;75.95;98315.84;5092600;28;20024;-70
2023/04/16 04:34:05;;;;;;;27.38;16.55;;;;;;;5.94;75.76;98319.41;5092332;28;20051;-71
2023/04/16 04:36:31;;;;;;;26.00;16.17;;;;;;;5.95;75.81;98319.13;5093010;28;20050;-71
2023/04/16 04:38:56;;;;;;;26.63;16.27;;;;;;;5.97;76.00;98316.16;5091256;28;20055;-71
2023/04/16 04:41:22;;;;;;;24.45;15.43;;;;;;;5.98;76.06;98331.41;5092644;28;20024;-71
2023/04/16 04:43:48;;;;;;;22.77;14.30;;;;;;;6.00;75.83;98331.13;5091181;28;20032;-71
2023/04/16 04:46:13;;;;;;;21.38;12.80;;;;;;;6.02;76.24;98335.25;5092139;28;20480;-70
2023/04/16 04:48:39;;;;;;;22.67;13.77;;;;;;;6.06;76.34;98336.34;5092264;28;20027;-71
2023/04/16 04:51:04;;;;;;;23.48;13.90;;;;;;;6.13;75.88;98340.69;5092359;28;20034;-71
2023/04/16 04:53:30;;;;;;;22.85;14.05;;;;;;;6.18;75.92;98346.16;5092384;28;20028;-70
2023/04/16 04:55:57;;;;;;;22.95;14.27;;;;;;;6.24;76.48;98345.06;5092556;28;20032;-71
2023/04/16 04:58:22;;;;;;;25.75;14.88;;;;;;;6.32;76.39;98343.72;5091643;28;20485;-72
2023/04/16 05:00:47;;;;;;;27.38;16.92;;;;;;;6.40;76.47;98340.47;5092302;28;20046;-71
2023/04/16 05:03:18;;;;;;;26.65;16.15;;;;;;;6.52;76.45;98357.34;5092268;28;20489;-71
2023/04/16 05:05:43;;;;;;;22.58;15.10;;;;;;;6.65;76.62;98350.53;5092131;28;20095;-71
2023/04/16 05:08:10;;;;;;;23.23;14.77;;;;;;;6.75;76.65;98355.16;5092179;28;20108;-71
2023/04/16 05:10:35;;;;;;;22.45;14.75;;;;;;;6.88;76.47;98352.97;5092160;28;20020;-71
2023/04/16 05:13:01;;;;;;;21.50;14.80;;;;;;;6.99;76.73;98355.41;5092123;28;20043;-71
2023/04/16 05:15:26;;;;;;;25.77;16.17;;;;;;;7.11;76.54;98359.75;5092080;28;20024;-71
2023/04/16 05:17:54;;;;;;;40.45;22.65;;;;;;;7.20;76.87;98360.00;5091530;28;20073;-71
2023/04/16 05:20:20;;;;;;;37.50;22.13;;;;;;;7.23;76.50;98364.91;5091776;28;20024;-70
2023/04/16 05:22:45;;;;;;;35.63;21.52;;;;;;;7.22;76.43;98360.56;5091905;28;20423;-71
2023/04/16 05:25:10;;;;;;;34.60;21.40;;;;;;;7.24;77.04;98361.94;5091845;28;20099;-71
2023/04/16 05:27:36;;;;;;;31.92;21.35;;;;;;;7.30;76.44;98373.63;5091771;28;20032;-71
2023/04/16 05:30:01;;;;;;;33.83;21.25;;;;;;;7.34;76.66;98372.00;5091720;28;20074;-70
2023/04/16 05:32:27;;;;;;;34.70;24.08;;;;;;;7.36;76.56;98367.06;5091931;28;20039;-71
2023/04/16 05:34:53;;;;;;;35.72;23.48;;;;;;;7.35;76.65;98370.91;5091708;28;20106;-71
2023/04/16 05:37:18;;;;;;;35.92;23.70;;;;;;;7.34;76.94;98363.81;5090084;28;20059;-70
2023/04/16 05:39:43;;;;;;;39.38;26.90;;;;;;;7.36;76.70;98378.00;5091953;28;20149;-71
2023/04/16 05:42:09;;;;;;;34.45;22.20;;;;;;;7.38;76.64;98374.97;5091392;28;20381;-71
2023/04/16 05:44:34;;;;;;;35.55;22.77;;;;;;;7.41;76.51;98377.16;5091674;28;20427;-71
2023/04/16 05:47:00;;;;;;;41.90;22.75;;;;;;;7.44;76.65;98379.31;5091662;28;20113;-71
2023/04/16 05:49:25;;;;;;;41.33;22.92;;;;;;;7.44;76.40;98374.69;5090357;28;20028;-71
2023/04/16 05:51:50;;;;;;;33.53;18.48;;;;;;;7.43;76.16;98383.13;5091382;28;20107;-71
2023/04/16 05:54:16;;;;;;;29.88;17.10;;;;;;;7.44;76.37;98387.50;5091626;28;20047;-72
2023/04/16 05:56:41;;;;;;;25.20;15.02;;;;;;;7.44;75.94;98390.22;5091657;28;20111;-71
2023/04/16 05:59:07;;;;;;;28.10;15.23;;;;;;;7.47;76.57;98392.41;5091549;28;20496;-71
2023/04/16 06:01:32;;;;;;;26.45;15.20;;;;;;;7.48;76.50;98390.50;5091471;28;20039;-71
2023/04/16 06:03:58;;;;;;;24.40;15.07;;;;;;;7.53;76.55;98391.31;5091613;28;20069;-71
2023/04/16 06:06:23;;;;;;;21.80;13.95;;;;;;;7.58;76.36;98390.47;5091276;28;20031;-71
2023/04/16 06:08:48;;;;;;;28.95;17.48;;;;;;;7.66;76.68;98394.53;5091465;28;20026;-71
2023/04/16 06:11:14;;;;;;;26.40;15.65;;;;;;;7.72;76.42;98402.44;5094576;28;20133;-71
2023/04/16 06:13:39;;;;;;;21.27;14.25;;;;;;;7.80;77.14;98400.22;5095392;28;20432;-71
2023/04/16 06:16:05;;;;;;;21.20;13.00;;;;;;;7.88;76.74;98405.09;5095137;28;20408;-72
2023/04/16 06:18:30;;;;;;;20.98;12.95;;;;;;;7.94;77.07;98408.63;5095271;28;20046;-71
2023/04/16 06:20:57;;;;;;;21.70;12.85;;;;;;;7.96;77.09;98407.22;5095332;28;20059;-71
2023/04/16 06:23:23;;;;;;;21.10;13.00;;;;;;;8.03;76.89;98413.22;5095115;28;20035;-71
2023/04/16 06:25:48;;;;;;;17.38;11.60;;;;;;;8.08;77.30;98414.28;5095168;28;20026;-71
2023/04/16 06:28:14;;;;;;;18.83;12.98;;;;;;;8.11;77.28;98409.09;5095124;28;20111;-72
2023/04/16 06:30:39;;;;;;;19.65;12.35;;;;;;;8.19;77.27;98421.34;5094036;28;20028;-71
2023/04/16 06:33:05;;;;;;;19.70;12.65;;;;;;;8.24;77.52;98415.03;5093896;28;20778;-71
2023/04/16 06:35:30;;;;;;;18.10;11.30;;;;;;;8.30;77.51;98419.38;5095114;28;20020;-72
2023/04/16 06:37:55;;;;;;;23.75;15.00;;;;;;;8.33;77.00;98422.38;5094766;28;20770;-71
2023/04/16 06:40:21;;;;;;;21.42;12.38;;;;;;;8.39;77.28;98427.78;5094825;28;20028;-71
2023/04/16 06:42:46;;;;;;;39.75;21.58;;;;;;;8.48;77.18;98426.09;5094796;28;20020;-71
2023/04/16 06:45:12;;;;;;;21.33;12.45;;;;;;;8.58;76.95;98425.22;5095139;28;20469;-71
2023/04/16 06:47:38;;;;;;;22.60;14.05;;;;;;;8.67;77.13;98420.78;5094693;28;20362;-71
2023/04/16 06:50:03;;;;;;;18.58;11.80;;;;;;;8.71;77.59;98424.59;5094621;28;20031;-71
2023/04/16 06:52:29;;;;;;;21.63;13.45;;;;;;;8.72;77.29;98422.69;5094697;28;20458;-72
2023/04/16 06:54:55;;;;;;;25.23;15.35;;;;;;;8.71;77.21;98426.53;5094612;28;20020;-71
2023/04/16 06:57:20;;;;;;;18.65;11.65;;;;;;;8.71;77.30;98423.78;5094487;28;20047;-71
2023/04/16 06:59:46;;;;;;;17.65;10.10;;;;;;;8.73;77.42;98421.59;5094443;28;20473;-71
2023/04/16 07:02:11;;;;;;;18.27;11.73;;;;;;;8.77;77.17;98428.09;5094531;28;20024;-71
2023/04/16 07:04:36;;;;;;;14.38;8.88;;;;;;;8.82;77.13;98424.53;5093107;28;20054;-71
2023/04/16 07:07:02;;;;;;;15.45;9.45;;;;;;;8.84;77.49;98419.59;5094276;28;20385;-71
2023/04/16 07:09:27;;;;;;;13.80;9.45;;;;;;;8.88;77.42;98426.13;5094462;28;20024;-72
2023/04/16 07:11:53;;;;;;;13.25;8.88;;;;;;;8.92;77.64;98427.97;5094379;28;20077;-72
2023/04/16 07:14:18;;;;;;;12.68;8.90;;;;;;;8.99;77.16;98433.13;5093895;28;20031;-71
2023/04/16 07:16:44;;;;;;;14.45;7.93;;;;;;;9.06;77.15;98435.53;5094279;28;20050;-71
2023/04/16 07:19:09;;;;;;;13.27;6.93;;;;;;;9.13;77.62;98433.28;5094170;28;20052;-72
2023/04/16 07:21:35;;;;;;;8.70;5.60;;;;;;;9.21;77.12;98434.59;5093791;28;20077;-71
2023/04/16 07:24:02;;;;;;;10.82;6.82;;;;;;;9.29;76.65;98430.41;5093849;28;20012;-71
2023/04/16 07:26:27;;;;;;;8.93;6.35;;;;;;;9.35;76.50;98426.50;5094121;28;20546;-71
2023/04/16 07:28:52;;;;;;;6.00;4.03;;;;;;;9.42;77.19;98431.63;5094129;28;20107;-72
2023/04/16 07:31:18;;;;;;;7.93;5.70;;;;;;;9.45;76.40;98434.63;5094046;28;20477;-71
2023/04/16 07:33:43;;;;;;;10.70;5.63;;;;;;;9.48;76.56;98430.47;5094110;28;20424;-71
2023/04/16 07:36:08;;;;;;;6.93;5.20;;;;;;;9.58;76.46;98429.59;5093817;28;20044;-71
2023/04/16 07:38:34;;;;;;;8.93;6.05;;;;;;;9.68;76.31;98432.19;5093532;28;20050;-72
2023/04/16 07:41:00;;;;;;;7.30;5.80;;;;;;;9.81;75.92;98436.97;5093461;28;20059;-71
2023/04/16 07:43:25;;;;;;;11.98;7.32;;;;;;;9.90;76.62;98444.56;5093613;28;20103;-70
2023/04/16 07:45:50;;;;;;;13.32;6.70;;;;;;;9.98;75.62;98449.41;5093576;28;20020;-71
2023/04/16 07:48:16;;;;;;;11.52;6.68;;;;;;;10.06;76.04;98447.91;5093443;28;20426;-71
2023/04/16 07:50:44;;;;;;;10.07;6.38;;;;;;;10.19;75.63;98452.66;5093533;28;20028;-72
2023/04/16 07:53:10;;;;;;;12.88;6.88;;;;;;;10.31;76.06;98459.66;5093556;28;20028;-71
2023/04/16 07:55:35;;;;;;;9.48;6.78;;;;;;;10.45;75.64;98459.78;5093256;28;20389;-71
2023/04/16 07:58:01;;;;;;;9.32;6.68;;;;;;;10.56;75.59;98462.09;5093323;28;20473;-71
2023/04/16 08:00:28;;;;;;;7.72;6.13;;;;;;;10.67;75.57;98465.50;5092132;28;20051;-72
2023/04/16 08:02:53;;;;;;;6.75;5.65;;;;;;;10.78;75.38;98457.94;5093522;28;20027;-72
2023/04/16 08:05:19;;;;;;;6.45;4.78;;;;;;;10.89;74.40;98466.81;5093665;28;20016;-72
2023/04/16 08:07:44;;;;;;;6.45;4.53;;;;;;;10.89;73.79;98463.25;5091893;28;20036;-71
2023/04/16 08:10:10;;;;;;;8.77;5.18;;;;;;;10.85;73.88;98469.34;5093054;28;20024;-72
2023/04/16 08:12:37;;;;;;;7.15;4.70;;;;;;;10.84;73.16;98469.63;5092908;28;20035;-72
2023/04/16 08:15:02;;;;;;;7.85;5.35;;;;;;;10.83;73.19;98468.00;5092984;28;20051;-69
2023/04/16 08:17:28;;;;;;;15.23;6.88;;;;;;;10.86;74.01;98473.72;5093260;28;20446;-72
2023/04/16 08:19:54;;;;;;;7.30;4.55;;;;;;;10.91;73.48;98477.50;5091959;28;20370;-70
2023/04/16 08:22:19;;;;;;;5.93;3.55;;;;;;;10.96;72.40;98483.72;5092883;28;20035;-70
2023/04/16 08:24:45;;;;;;;4.80;3.50;;;;;;;10.95;72.81;98473.84;5093010;28;20028;-70
2023/04/16 08:27:11;;;;;;;10.07;4.22;;;;;;;10.99;72.84;98474.09;5092694;28;20028;-71
2023/04/16 08:29:36;;;;;;;6.30;3.28;;;;;;;11.07;72.06;98480.81;5092847;28;20032;-70
2023/04/16 08:32:02;;;;;;;5.18;3.63;;;;;;;11.11;71.16;98481.84;5092523;28;20035;-70
2023/04/16 08:34:27;;;;;;;4.43;3.35;;;;;;;11.09;71.93;98478.59;5092605;28;20020;-70
2023/04/16 08:36:52;;;;;;;7.85;5.00;;;;;;;11.16;72.16;98481.78;5092910;28;20047;-70
2023/04/16 08:39:18;;;;;;;5.28;3.95;;;;;;;11.23;71.78;98484.13;5092407;28;20043;-71
2023/04/16 08:41:45;;;;;;;15.27;7.50;;;;;;;11.30;71.48;98481.81;5091153;28;20024;-71
2023/04/16 08:44:22;;;;;;;15.82;6.65;;;;;;;11.39;71.94;98470.94;5092349;28;20034;-71
2023/04/16 08:46:49;;;;;;;11.15;5.65;;;;;;;11.46;71.80;98485.91;5092461;28;20024;-71
2023/04/16 08:49:19;;;;;;;5.03;3.17;;;;;;;11.47;70.64;98479.31;5092483;28;20043;-71
2023/04/16 08:51:50;;;;;;;7.25;4.35;;;;;;;11.51;70.79;98478.69;5092320;28;20039;-70
2023/04/16 08:54:28;;;;;;;5.68;3.20;;;;;;;11.53;70.84;98480.03;5091452;28;20390;-71
2023/04/16 08:56:54;;;;;;;4.95;2.92;;;;;;;11.55;70.05;98491.53;5092402;28;20809;-71
2023/04/16 08:59:21;;;;;;;3.40;2.55;;;;;;;11.59;70.06;98487.09;5092362;28;20070;-70
2023/04/16 09:01:47;;;;;;;3.08;2.50;;;;;;;11.66;69.05;98483.09;5092301;28;20032;-71
2023/04/16 09:04:14;;;;;;;3.90;3.00;;;;;;;11.75;69.73;98484.03;5092207;28;20012;-71
2023/04/16 09:06:41;;;;;;;5.30;3.45;;;;;;;11.90;68.55;98482.94;5091078;28;20445;-71
2023/04/16 09:09:07;;;;;;;4.63;3.40;;;;;;;12.00;69.11;98481.97;5092522;28;20024;-70
2023/04/16 09:11:33;;;;;;;3.70;3.30;;;;;;;12.10;68.62;98481.75;5091986;28;20024;-70
2023/04/16 09:13:59;;;;;;;3.80;3.15;;;;;;;12.21;69.46;98479.63;5091988;28;20020;-70
2023/04/16 09:16:26;;;;;;;3.83;2.70;;;;;;;12.35;68.21;98479.59;5092156;28;20027;-70
2023/04/16 09:18:52;;;;;;;3.33;2.60;;;;;;;12.32;68.13;98486.50;5092104;28;20078;-71
2023/04/16 09:21:18;;;;;;;3.53;2.70;;;;;;;12.31;67.83;98489.59;5092423;28;20063;-71
2023/04/16 09:23:44;;;;;;;4.00;2.67;;;;;;;12.29;67.83;98495.38;5091946;28;20024;-71
2023/04/16 09:26:10;;;;;;;4.78;2.50;;;;;;;12.28;68.17;98492.94;5091140;28;20044;-70
2023/04/16 09:28:50;;;;;;;3.40;2.50;;;;;;;12.27;67.83;98491.31;5091593;28;20024;-71
2023/04/16 09:31:16;;;;;;;;;;;;;;;12.29;68.35;98486.31;5088259;28;20048;-71
2023/04/16 09:33:43;;;;;;;8.02;3.60;;;;;;;12.32;67.92;98492.00;5092190;28;19935;-71
2023/04/16 09:36:09;;;;;;;6.13;3.03;;;;;;;12.35;67.56;98498.84;5092402;28;20134;-71
2023/04/16 09:39:02;;;;;;;4.38;2.67;;;;;;;12.33;66.46;98498.34;5091476;28;20048;-70
2023/04/16 09:41:34;;;;;;;2.55;2.25;;;;;;;12.38;67.04;98490.00;5069531;28;20060;-70
2023/04/16 09:44:03;;;;;;;3.15;2.42;;;;;;;12.50;66.38;98492.22;5072875;28;20029;-70
2023/04/16 09:46:40;;;;;;;6.55;3.47;;;;;;;12.58;66.91;98498.91;5093772;28;20027;-70
2023/04/16 09:49:09;;;;;;;5.53;2.80;;;;;;;12.67;66.36;98497.06;5094614;28;20107;-70
2023/04/16 09:51:40;;;;;;;3.38;2.60;;;;;;;12.75;66.41;98490.00;5095828;28;20020;-71
2023/04/16 09:54:05;;;;;;;3.55;2.92;;;;;;;12.86;62.46;98493.34;5095540;28;20570;-71
2023/04/16 09:56:31;;;;;;;3.50;2.80;;;;;;;12.86;64.54;98487.81;5095822;28;20020;-70
2023/04/16 09:58:58;;;;;;;6.55;3.88;;;;;;;12.95;64.50;98489.56;5095991;28;20028;-71
2023/04/16 10:01:24;;;;;;;4.90;3.20;;;;;;;13.09;65.11;98495.00;5095960;28;20534;-71
2023/04/16 10:03:52;;;;;;;5.03;3.30;;;;;;;13.23;65.22;98491.38;5094279;28;20020;-70
2023/04/16 10:06:21;;;;;;;6.05;3.90;;;;;;;13.29;64.71;98506.63;5096030;28;20149;-71
2023/04/16 10:08:47;;;;;;;11.00;5.40;;;;;;;13.28;65.02;98504.19;5096148;28;20024;-70
2023/04/16 10:11:14;;;;;;;7.40;4.57;;;;;;;13.27;64.50;98497.06;5095704;28;20111;-70
2023/04/16 10:13:39;;;;;;;6.43;4.03;;;;;;;13.23;63.71;98505.16;5095868;28;20028;-71
2023/04/16 10:16:06;;;;;;;8.13;4.72;;;;;;;13.23;64.48;98511.47;5095475;28;20142;-71
2023/04/16 10:18:34;;;;;;;7.65;4.97;;;;;;;13.27;64.39;98506.13;5094921;28;20043;-70
2023/04/16 10:21:00;;;;;;;6.20;4.53;;;;;;;13.28;63.89;98504.19;5095104;28;20474;-70
2023/04/16 10:23:26;;;;;;;5.05;4.22;;;;;;;13.23;61.56;98516.16;5095212;28;20381;-70
2023/04/16 10:25:53;;;;;;;6.22;4.07;;;;;;;13.16;61.89;98510.28;5095139;28;20032;-70
2023/04/16 10:28:19;;;;;;;5.00;3.97;;;;;;;13.15;62.69;98519.66;5093523;28;20031;-70
2023/04/16 10:30:51;;;;;;;3.50;3.20;;;;;;;13.18;62.41;98508.03;5094379;28;20028;-71
2023/04/16 10:33:22;;;;;;;4.28;3.83;;;;;;;13.28;62.34;98518.78;5094296;28;20024;-71
2023/04/16 10:36:05;;;;;;;3.72;3.35;;;;;;;13.35;61.63;98510.88;5088576;28;20046;-71
2023/04/16 10:38:34;;;;;;;4.43;3.28;;;;;;;13.43;61.89;98512.13;5092374;28;20052;-71
2023/04/16 10:41:02;;;;;;;5.93;3.85;;;;;;;13.54;59.85;98512.69;5094392;28;20046;-70
2023/04/16 10:43:30;;;;;;;4.38;2.92;;;;;;;13.64;61.55;98512.41;5093029;28;20122;-71
2023/04/16 10:45:55;;;;;;;5.50;3.40;;;;;;;13.73;60.98;98508.88;5094422;28;20035;-71
2023/04/16 10:48:24;;;;;;;3.72;2.80;;;;;;;13.82;60.07;98518.00;5094551;28;20024;-71
2023/04/16 10:50:57;;;;;;;4.05;3.25;;;;;;;13.85;59.93;98522.91;5094216;28;20103;-71
2023/04/16 10:53:25;;;;;;;4.93;3.00;;;;;;;13.86;59.50;98516.25;5094792;28;20036;-71
2023/04/16 10:56:03;;;;;;;3.42;2.67;;;;;;;13.91;58.91;98516.13;5092728;28;20032;-71
2023/04/16 10:58:35;;;;;;;3.20;2.67;;;;;;;14.01;59.62;98508.72;5092804;28;20038;-72
2023/04/16 11:01:15;;;;;;;4.45;2.92;;;;;;;14.18;56.90;98524.50;5092751;28;20115;-72
2023/04/16 11:03:50;;;;;;;3.35;2.58;;;;;;;14.18;58.22;98506.00;5093171;28;20027;-72
2023/04/16 11:06:28;;;;;;;5.68;4.25;;;;;;;14.19;56.81;98509.59;5093118;28;20078;-72
2023/04/16 11:08:54;;;;;;;10.68;7.15;;;;;;;14.17;57.86;98515.41;5091733;28;20024;-72
2023/04/16 11:11:20;;;;;;;7.88;5.68;;;;;;;14.12;57.09;98519.13;5092743;28;20035;-72
2023/04/16 11:13:45;;;;;;;4.30;3.90;;;;;;;14.02;57.97;98513.09;5092209;28;20058;-72
2023/04/16 11:16:15;;;;;;;4.88;4.18;;;;;;;13.91;57.96;98520.81;5092907;28;20028;-73
2023/04/16 11:18:42;;;;;;;7.15;4.90;;;;;;;13.85;57.08;98520.13;5092443;28;20027;-72
2023/04/16 11:21:09;;;;;;;13.75;7.28;;;;;;;13.73;57.80;98520.72;5093024;28;20030;-72
2023/04/16 11:23:49;;;;;;;14.10;7.60;;;;;;;13.70;58.47;98516.66;5092840;28;20024;-73
2023/04/16 11:26:29;;;;;;;13.40;7.47;;;;;;;13.70;58.17;98524.13;5090994;28;20035;-73